Cloverdale, Virginia
Current Conditions -  °F | °C
As of 12:54 AM on Thursday 29 Jan 2015 (Local Time) from KROA Reporting Station
Clear Clear  
Wind Chill: 24°   Ceiling: Unl
Heat Index: 24°   Visibility: 10mi
Dew Point: 14°   Wind: 0mph
Humidity: 65%   Direction: NA
Pressure: 30.32"   Gusts: NA
Location:  37.36°N, 79.91°W
Report Text: KROA 290554Z 00000KT 10SM CLR M04/M10 A3032 RMK AO2 SLP275 T10441100 10017 21044 50001
Loading
Personal Weather Stations






























Interactive Weather Map New forecast layout! Learn more

10-Day Weather Forecast

Advertisements
Track Severe Weather on mobile